SAS539 EKCH-EGCC
Flight info
| Callsign | SAS539 |
|---|---|
| Flight time | 1h 46m |
| Altitude | 36000 |
| Route | ODDON DCT LESRA DCT ROPAL DCT TILNI |
| Aircraft | A320/M-SDE3FGHIRWY/LB1 |
Departure
| Time | 2026-05-05 14:57 |
|---|---|
| Airport | Copenhagen Kastrup Airport (EKCH) |
Arrival
| Time | 2026-05-05 16:44 |
|---|---|
| Airport | Manchester Airport (EGCC) |
| Time | Latitude | Longitude | Altitude | Speed | Heading |
|---|---|---|---|---|---|
| 2026-05-05 14:36 | 55.62429 | 12.64921 | 21 ft | 0 kts | 23° |
| 2026-05-05 14:43 | 55.62423 | 12.64916 | 23 ft | 3 kts | 23° |
| 2026-05-05 14:43 | 55.62403 | 12.64900 | 21 ft | 4 kts | 33° |
| 2026-05-05 14:43 | 55.62383 | 12.64870 | 24 ft | 4 kts | 53° |
| 2026-05-05 14:44 | 55.62372 | 12.64835 | 23 ft | 1 kts | 73° |
| 2026-05-05 14:44 | 55.62370 | 12.64827 | 23 ft | 0 kts | 73° |
| 2026-05-05 14:47 | 55.62371 | 12.64828 | 23 ft | 0 kts | 73° |
| 2026-05-05 14:48 | 55.62364 | 12.64862 | 23 ft | 3 kts | 121° |
| 2026-05-05 14:48 | 55.62357 | 12.64878 | 23 ft | 0 kts | 127° |
| 2026-05-05 14:48 | 55.62347 | 12.64900 | 25 ft | 11 kts | 130° |
| 2026-05-05 14:49 | 55.62296 | 12.65020 | 26 ft | 12 kts | 124° |
| 2026-05-05 14:49 | 55.62250 | 12.65139 | 24 ft | 11 kts | 131° |
| 2026-05-05 14:49 | 55.62190 | 12.65159 | 24 ft | 8 kts | 197° |
| 2026-05-05 14:49 | 55.62150 | 12.65116 | 24 ft | 8 kts | 215° |
| 2026-05-05 14:50 | 55.62089 | 12.65042 | 22 ft | 12 kts | 213° |
| 2026-05-05 14:50 | 55.62019 | 12.64962 | 22 ft | 12 kts | 213° |
| 2026-05-05 14:50 | 55.61949 | 12.64882 | 20 ft | 13 kts | 213° |
| 2026-05-05 14:50 | 55.61874 | 12.64796 | 18 ft | 12 kts | 213° |
| 2026-05-05 14:51 | 55.61815 | 12.64728 | 19 ft | 9 kts | 213° |
| 2026-05-05 14:51 | 55.61771 | 12.64677 | 20 ft | 7 kts | 214° |
| 2026-05-05 14:51 | 55.61736 | 12.64636 | 19 ft | 7 kts | 213° |
| 2026-05-05 14:51 | 55.61673 | 12.64565 | 19 ft | 11 kts | 212° |
| 2026-05-05 14:52 | 55.61613 | 12.64497 | 19 ft | 10 kts | 212° |
| 2026-05-05 14:52 | 55.61554 | 12.64430 | 18 ft | 10 kts | 213° |
| 2026-05-05 14:52 | 55.61503 | 12.64372 | 19 ft | 8 kts | 213° |
| 2026-05-05 14:52 | 55.61462 | 12.64321 | 19 ft | 7 kts | 215° |
| 2026-05-05 14:53 | 55.61390 | 12.64238 | 18 ft | 18 kts | 212° |
| 2026-05-05 14:53 | 55.61288 | 12.64121 | 18 ft | 17 kts | 214° |
| 2026-05-05 14:53 | 55.61196 | 12.64013 | 17 ft | 15 kts | 213° |
| 2026-05-05 14:53 | 55.61121 | 12.63925 | 19 ft | 12 kts | 212° |
| 2026-05-05 14:54 | 55.61057 | 12.63854 | 20 ft | 10 kts | 213° |
| 2026-05-05 14:54 | 55.61003 | 12.63790 | 20 ft | 10 kts | 213° |
| 2026-05-05 14:54 | 55.60910 | 12.63682 | 21 ft | 19 kts | 212° |
| 2026-05-05 14:54 | 55.60792 | 12.63549 | 22 ft | 20 kts | 213° |
| 2026-05-05 14:55 | 55.60672 | 12.63407 | 21 ft | 20 kts | 213° |
| 2026-05-05 14:55 | 55.60569 | 12.63263 | 20 ft | 13 kts | 219° |
| 2026-05-05 14:55 | 55.60512 | 12.63221 | 22 ft | 7 kts | 177° |
| 2026-05-05 14:55 | 55.60481 | 12.63244 | 25 ft | 4 kts | 148° |
| 2026-05-05 14:56 | 55.60449 | 12.63298 | 24 ft | 10 kts | 132° |
| 2026-05-05 14:56 | 55.60412 | 12.63426 | 28 ft | 13 kts | 84° |
| 2026-05-05 14:56 | 55.60444 | 12.63518 | 26 ft | 0 kts | 46° |
| 2026-05-05 14:56 | 55.60458 | 12.63544 | 26 ft | 11 kts | 46° |
| 2026-05-05 14:57 | 55.60585 | 12.63734 | 24 ft | 46 kts | 40° |
| 2026-05-05 14:57 | 55.61007 | 12.64371 | 20 ft | 111 kts | 41° |
| 2026-05-05 14:57 | 55.61732 | 12.65466 | 29 ft | 160 kts | 39° |
| 2026-05-05 14:57 | 55.62557 | 12.66797 | 686 ft | 156 kts | 41° |
| 2026-05-05 14:58 | 55.63339 | 12.68094 | 1499 ft | 153 kts | 39° |
| 2026-05-05 14:58 | 55.64155 | 12.69361 | 2060 ft | 164 kts | 38° |
| 2026-05-05 14:58 | 55.65094 | 12.70732 | 2357 ft | 185 kts | 28° |
| 2026-05-05 14:58 | 55.66370 | 12.71118 | 2641 ft | 198 kts | 344° |
| 2026-05-05 14:59 | 55.67734 | 12.70312 | 2945 ft | 217 kts | 340° |
| 2026-05-05 14:59 | 55.69300 | 12.69723 | 3315 ft | 243 kts | 352° |
| 2026-05-05 14:59 | 55.71030 | 12.69487 | 3999 ft | 253 kts | 356° |
| 2026-05-05 14:59 | 55.72808 | 12.69368 | 4875 ft | 257 kts | 357° |
| 2026-05-05 15:00 | 55.74597 | 12.69267 | 5817 ft | 259 kts | 356° |
| 2026-05-05 15:00 | 55.75794 | 12.69189 | 6387 ft | 261 kts | 356° |
| 2026-05-05 15:00 | 55.78239 | 12.68998 | 7494 ft | 266 kts | 355° |
| 2026-05-05 15:00 | 55.80073 | 12.68509 | 8289 ft | 268 kts | 340° |
| 2026-05-05 15:01 | 55.81752 | 12.67064 | 9071 ft | 270 kts | 323° |
| 2026-05-05 15:01 | 55.83114 | 12.64766 | 9848 ft | 271 kts | 306° |
| 2026-05-05 15:01 | 55.84024 | 12.61842 | 10654 ft | 271 kts | 289° |
| 2026-05-05 15:01 | 55.84718 | 12.58675 | 11231 ft | 283 kts | 289° |
| 2026-05-05 15:02 | 55.85463 | 12.55274 | 11488 ft | 306 kts | 289° |
| 2026-05-05 15:02 | 55.86248 | 12.51688 | 12051 ft | 315 kts | 288° |
| 2026-05-05 15:02 | 55.87052 | 12.48045 | 12759 ft | 318 kts | 288° |
| 2026-05-05 15:02 | 55.87869 | 12.44370 | 13500 ft | 320 kts | 288° |
| 2026-05-05 15:03 | 55.88689 | 12.40660 | 14192 ft | 323 kts | 286° |
| 2026-05-05 15:03 | 55.89202 | 12.36782 | 14845 ft | 322 kts | 274° |
| 2026-05-05 15:03 | 55.89199 | 12.32815 | 15506 ft | 322 kts | 261° |
| 2026-05-05 15:03 | 55.88687 | 12.28929 | 16155 ft | 323 kts | 250° |
| 2026-05-05 15:04 | 55.87715 | 12.25322 | 16801 ft | 325 kts | 242° |
| 2026-05-05 15:04 | 55.86615 | 12.21790 | 17443 ft | 327 kts | 242° |
| 2026-05-05 15:04 | 55.85511 | 12.18236 | 18065 ft | 329 kts | 242° |
| 2026-05-05 15:04 | 55.84401 | 12.14658 | 18661 ft | 331 kts | 242° |
| 2026-05-05 15:05 | 55.82161 | 12.07414 | 19729 ft | 338 kts | 242° |
| 2026-05-05 15:05 | 55.81021 | 12.03738 | 20253 ft | 341 kts | 242° |
| 2026-05-05 15:05 | 55.79869 | 12.00034 | 20756 ft | 344 kts | 242° |
| 2026-05-05 15:06 | 55.78703 | 11.96298 | 21238 ft | 347 kts | 241° |
| 2026-05-05 15:06 | 55.77526 | 11.92525 | 21715 ft | 350 kts | 242° |
| 2026-05-05 15:06 | 55.76340 | 11.88727 | 22173 ft | 353 kts | 241° |
| 2026-05-05 15:06 | 55.75141 | 11.84891 | 22625 ft | 357 kts | 241° |
| 2026-05-05 15:07 | 55.73932 | 11.81032 | 23067 ft | 360 kts | 241° |
| 2026-05-05 15:07 | 55.72710 | 11.77142 | 23488 ft | 363 kts | 241° |
| 2026-05-05 15:07 | 55.71490 | 11.73270 | 23893 ft | 366 kts | 241° |
| 2026-05-05 15:07 | 55.70245 | 11.69327 | 24303 ft | 368 kts | 241° |
| 2026-05-05 15:08 | 55.68987 | 11.65353 | 24709 ft | 371 kts | 241° |
| 2026-05-05 15:08 | 55.67723 | 11.61352 | 25105 ft | 373 kts | 241° |
| 2026-05-05 15:08 | 55.66452 | 11.57332 | 25499 ft | 375 kts | 241° |
| 2026-05-05 15:08 | 55.65169 | 11.53283 | 25859 ft | 378 kts | 241° |
| 2026-05-05 15:09 | 55.63872 | 11.49217 | 26226 ft | 380 kts | 241° |
| 2026-05-05 15:09 | 55.62570 | 11.45152 | 26680 ft | 379 kts | 242° |
| 2026-05-05 15:09 | 55.61390 | 11.41005 | 27164 ft | 377 kts | 249° |
| 2026-05-05 15:09 | 55.60653 | 11.36574 | 27560 ft | 377 kts | 259° |
| 2026-05-05 15:10 | 55.60383 | 11.31951 | 27932 ft | 379 kts | 266° |
| 2026-05-05 15:10 | 55.60248 | 11.27284 | 28282 ft | 381 kts | 265° |
| 2026-05-05 15:10 | 55.60101 | 11.22594 | 28609 ft | 383 kts | 265° |
| 2026-05-05 15:10 | 55.59945 | 11.17888 | 28946 ft | 384 kts | 265° |
| 2026-05-05 15:11 | 55.59787 | 11.13167 | 29264 ft | 386 kts | 265° |
| 2026-05-05 15:11 | 55.59626 | 11.08417 | 29564 ft | 387 kts | 265° |
| 2026-05-05 15:11 | 55.59463 | 11.03651 | 29865 ft | 389 kts | 265° |
| 2026-05-05 15:11 | 55.59300 | 10.98874 | 30162 ft | 390 kts | 265° |
| 2026-05-05 15:12 | 55.59136 | 10.94083 | 30449 ft | 391 kts | 265° |
| 2026-05-05 15:12 | 55.58971 | 10.89270 | 30707 ft | 393 kts | 265° |
| 2026-05-05 15:12 | 55.58802 | 10.84432 | 30938 ft | 395 kts | 265° |
| 2026-05-05 15:12 | 55.58627 | 10.79570 | 31192 ft | 397 kts | 265° |
| 2026-05-05 15:13 | 55.58448 | 10.74705 | 31523 ft | 396 kts | 265° |
| 2026-05-05 15:13 | 55.58267 | 10.69845 | 31859 ft | 396 kts | 265° |
| 2026-05-05 15:13 | 55.58090 | 10.64992 | 32184 ft | 395 kts | 265° |
| 2026-05-05 15:13 | 55.57964 | 10.60136 | 32495 ft | 396 kts | 266° |
| 2026-05-05 15:14 | 55.57896 | 10.55275 | 32794 ft | 396 kts | 267° |
| 2026-05-05 15:14 | 55.57858 | 10.50409 | 33086 ft | 396 kts | 268° |
| 2026-05-05 15:14 | 55.57826 | 10.45545 | 33397 ft | 396 kts | 268° |
| 2026-05-05 15:14 | 55.57787 | 10.40689 | 33715 ft | 395 kts | 268° |
| 2026-05-05 15:15 | 55.57737 | 10.35836 | 33993 ft | 395 kts | 267° |
| 2026-05-05 15:15 | 55.57676 | 10.30979 | 34268 ft | 395 kts | 267° |
| 2026-05-05 15:15 | 55.57606 | 10.26134 | 34536 ft | 395 kts | 267° |
| 2026-05-05 15:15 | 55.57531 | 10.21274 | 34776 ft | 396 kts | 267° |
| 2026-05-05 15:16 | 55.57454 | 10.16410 | 35026 ft | 396 kts | 267° |
| 2026-05-05 15:16 | 55.57374 | 10.11545 | 35271 ft | 396 kts | 267° |
| 2026-05-05 15:16 | 55.57292 | 10.06676 | 35482 ft | 397 kts | 267° |
| 2026-05-05 15:16 | 55.57210 | 10.01801 | 35700 ft | 397 kts | 267° |
| 2026-05-05 15:17 | 55.57130 | 9.96922 | 35901 ft | 398 kts | 267° |
| 2026-05-05 15:17 | 55.56973 | 9.87189 | 35968 ft | 394 kts | 267° |
| 2026-05-05 15:18 | 55.56796 | 9.77526 | 35962 ft | 393 kts | 266° |
| 2026-05-05 15:18 | 55.56605 | 9.67877 | 35952 ft | 393 kts | 266° |
| 2026-05-05 15:19 | 55.56415 | 9.58234 | 35952 ft | 392 kts | 266° |
| 2026-05-05 15:19 | 55.56224 | 9.48599 | 35950 ft | 392 kts | 266° |
| 2026-05-05 15:20 | 55.56018 | 9.38966 | 35949 ft | 392 kts | 266° |
| 2026-05-05 15:20 | 55.55800 | 9.29346 | 35949 ft | 392 kts | 266° |
| 2026-05-05 15:21 | 55.55578 | 9.19715 | 35948 ft | 392 kts | 266° |
| 2026-05-05 15:21 | 55.55349 | 9.10082 | 35947 ft | 393 kts | 266° |
| 2026-05-05 15:22 | 55.55104 | 9.00447 | 35948 ft | 393 kts | 266° |
| 2026-05-05 15:22 | 55.54860 | 8.90814 | 35949 ft | 393 kts | 266° |
| 2026-05-05 15:23 | 55.54614 | 8.81244 | 35948 ft | 393 kts | 266° |
| 2026-05-05 15:23 | 55.54357 | 8.71609 | 35950 ft | 393 kts | 266° |
| 2026-05-05 15:24 | 55.54095 | 8.61973 | 35954 ft | 393 kts | 265° |
| 2026-05-05 15:24 | 55.53820 | 8.52337 | 35957 ft | 393 kts | 265° |
| 2026-05-05 15:25 | 55.53535 | 8.42714 | 35958 ft | 393 kts | 265° |
| 2026-05-05 15:25 | 55.53244 | 8.33079 | 35960 ft | 393 kts | 265° |
| 2026-05-05 15:26 | 55.52952 | 8.23447 | 35961 ft | 393 kts | 265° |
| 2026-05-05 15:26 | 55.52650 | 8.13816 | 35959 ft | 393 kts | 265° |
| 2026-05-05 15:27 | 55.52338 | 8.04187 | 35959 ft | 393 kts | 265° |
| 2026-05-05 15:27 | 55.52016 | 7.94565 | 35959 ft | 393 kts | 265° |
| 2026-05-05 15:28 | 55.51690 | 7.84936 | 35957 ft | 393 kts | 265° |
| 2026-05-05 15:28 | 55.51354 | 7.75303 | 35957 ft | 393 kts | 265° |
| 2026-05-05 15:29 | 55.51013 | 7.65670 | 35958 ft | 394 kts | 265° |
| 2026-05-05 15:29 | 55.50667 | 7.56046 | 35958 ft | 393 kts | 265° |
| 2026-05-05 15:30 | 55.50305 | 7.46420 | 35958 ft | 393 kts | 265° |
| 2026-05-05 15:30 | 55.49935 | 7.36803 | 35957 ft | 393 kts | 265° |
| 2026-05-05 15:31 | 55.49564 | 7.27184 | 35955 ft | 393 kts | 265° |
| 2026-05-05 15:31 | 55.49190 | 7.17556 | 35955 ft | 394 kts | 265° |
| 2026-05-05 15:32 | 55.48808 | 7.07922 | 35957 ft | 394 kts | 264° |
| 2026-05-05 15:32 | 55.48412 | 6.98282 | 35961 ft | 394 kts | 264° |
| 2026-05-05 15:33 | 55.48007 | 6.88704 | 35965 ft | 395 kts | 264° |
| 2026-05-05 15:33 | 55.47591 | 6.79056 | 35966 ft | 395 kts | 264° |
| 2026-05-05 15:34 | 55.47239 | 6.70975 | 35966 ft | 395 kts | 264° |
| 2026-05-05 15:34 | 55.46814 | 6.61317 | 35963 ft | 395 kts | 264° |
| 2026-05-05 15:35 | 55.46380 | 6.51656 | 35966 ft | 395 kts | 264° |
| 2026-05-05 15:35 | 55.45869 | 6.40363 | 35973 ft | 396 kts | 264° |
| 2026-05-05 15:36 | 55.45498 | 6.32324 | 35976 ft | 396 kts | 264° |
| 2026-05-05 15:36 | 55.45040 | 6.22659 | 35979 ft | 396 kts | 264° |
| 2026-05-05 15:37 | 55.44576 | 6.12996 | 35987 ft | 396 kts | 264° |
| 2026-05-05 15:37 | 55.44101 | 6.03340 | 35988 ft | 396 kts | 264° |
| 2026-05-05 15:38 | 55.43613 | 5.93672 | 35985 ft | 396 kts | 264° |
| 2026-05-05 15:38 | 55.43119 | 5.84003 | 35983 ft | 396 kts | 264° |
| 2026-05-05 15:39 | 55.42623 | 5.74335 | 35985 ft | 396 kts | 264° |
| 2026-05-05 15:39 | 55.42120 | 5.64666 | 35983 ft | 397 kts | 263° |
| 2026-05-05 15:40 | 55.41613 | 5.55057 | 35989 ft | 397 kts | 263° |
| 2026-05-05 15:40 | 55.41093 | 5.45375 | 35984 ft | 398 kts | 263° |
| 2026-05-05 15:41 | 55.40571 | 5.35687 | 35985 ft | 398 kts | 263° |
| 2026-05-05 15:41 | 55.40040 | 5.26000 | 35985 ft | 398 kts | 263° |
| 2026-05-05 15:42 | 55.39489 | 5.16252 | 35984 ft | 398 kts | 263° |
| 2026-05-05 15:42 | 55.38931 | 5.06575 | 35982 ft | 398 kts | 263° |
| 2026-05-05 15:43 | 55.37878 | 4.97063 | 35979 ft | 397 kts | 249° |
| 2026-05-05 15:43 | 55.35813 | 4.88063 | 35977 ft | 397 kts | 248° |
| 2026-05-05 15:44 | 55.33746 | 4.79130 | 35983 ft | 397 kts | 248° |
| 2026-05-05 15:44 | 55.31650 | 4.70084 | 35974 ft | 397 kts | 248° |
| 2026-05-05 15:45 | 55.29563 | 4.61108 | 35972 ft | 397 kts | 248° |
| 2026-05-05 15:45 | 55.27472 | 4.52129 | 35971 ft | 398 kts | 248° |
| 2026-05-05 15:46 | 55.25370 | 4.43148 | 35974 ft | 398 kts | 248° |
| 2026-05-05 15:46 | 55.23252 | 4.34174 | 35980 ft | 398 kts | 248° |
| 2026-05-05 15:47 | 55.21123 | 4.25219 | 35982 ft | 399 kts | 248° |
| 2026-05-05 15:47 | 55.18993 | 4.16253 | 35978 ft | 399 kts | 248° |
| 2026-05-05 15:48 | 55.16850 | 4.07282 | 35977 ft | 400 kts | 248° |
| 2026-05-05 15:48 | 55.14715 | 3.98368 | 35984 ft | 400 kts | 248° |
| 2026-05-05 15:49 | 55.13369 | 3.88971 | 35972 ft | 400 kts | 262° |
| 2026-05-05 15:49 | 55.12622 | 3.79253 | 35969 ft | 401 kts | 261° |
| 2026-05-05 15:50 | 55.11856 | 3.69593 | 35969 ft | 402 kts | 261° |
| 2026-05-05 15:50 | 55.11090 | 3.59988 | 35971 ft | 402 kts | 261° |
| 2026-05-05 15:51 | 55.10311 | 3.50317 | 35970 ft | 402 kts | 261° |
| 2026-05-05 15:51 | 55.09535 | 3.40657 | 35969 ft | 402 kts | 261° |
| 2026-05-05 15:52 | 55.08751 | 3.30984 | 35969 ft | 403 kts | 261° |
| 2026-05-05 15:52 | 55.07948 | 3.21242 | 35968 ft | 403 kts | 261° |
| 2026-05-05 15:53 | 55.07138 | 3.11566 | 35966 ft | 403 kts | 261° |
| 2026-05-05 15:53 | 55.06323 | 3.01892 | 35964 ft | 403 kts | 261° |
| 2026-05-05 15:54 | 55.05501 | 2.92214 | 35963 ft | 404 kts | 261° |
| 2026-05-05 15:54 | 55.04678 | 2.82587 | 35964 ft | 404 kts | 261° |
| 2026-05-05 15:55 | 55.03833 | 2.72894 | 35968 ft | 404 kts | 260° |
| 2026-05-05 15:55 | 55.02980 | 2.63195 | 35971 ft | 405 kts | 260° |
| 2026-05-05 15:56 | 55.02128 | 2.53487 | 35974 ft | 405 kts | 260° |
| 2026-05-05 15:56 | 55.01261 | 2.43704 | 35978 ft | 406 kts | 260° |
| 2026-05-05 15:57 | 55.00379 | 2.33992 | 35981 ft | 407 kts | 260° |
| 2026-05-05 15:57 | 54.99500 | 2.24324 | 35986 ft | 407 kts | 260° |
| 2026-05-05 15:58 | 54.98614 | 2.14587 | 35982 ft | 407 kts | 260° |
| 2026-05-05 15:58 | 54.97707 | 2.04790 | 35981 ft | 407 kts | 260° |
| 2026-05-05 15:59 | 54.96802 | 1.95123 | 35978 ft | 408 kts | 260° |
| 2026-05-05 15:59 | 54.95875 | 1.85318 | 35971 ft | 408 kts | 260° |
| 2026-05-05 16:00 | 54.94953 | 1.75569 | 35972 ft | 408 kts | 260° |
| 2026-05-05 16:00 | 54.94023 | 1.65894 | 35972 ft | 408 kts | 259° |
| 2026-05-05 16:01 | 54.93082 | 1.56152 | 35974 ft | 409 kts | 259° |
| 2026-05-05 16:01 | 54.92130 | 1.46346 | 35980 ft | 409 kts | 259° |
| 2026-05-05 16:02 | 54.91179 | 1.36654 | 35986 ft | 410 kts | 259° |
| 2026-05-05 16:02 | 54.90205 | 1.26902 | 35996 ft | 410 kts | 259° |
| 2026-05-05 16:03 | 54.89230 | 1.17143 | 35998 ft | 410 kts | 259° |
| 2026-05-05 16:03 | 54.88244 | 1.07405 | 35997 ft | 410 kts | 259° |
| 2026-05-05 16:04 | 54.87250 | 0.97656 | 35998 ft | 410 kts | 259° |
| 2026-05-05 16:04 | 54.86253 | 0.87912 | 36002 ft | 410 kts | 259° |
| 2026-05-05 16:05 | 54.85246 | 0.78160 | 36010 ft | 411 kts | 259° |
| 2026-05-05 16:05 | 54.84227 | 0.68410 | 36013 ft | 411 kts | 259° |
| 2026-05-05 16:06 | 54.83204 | 0.58653 | 36016 ft | 411 kts | 259° |
| 2026-05-05 16:06 | 54.82167 | 0.48903 | 36022 ft | 411 kts | 259° |
| 2026-05-05 16:07 | 54.81116 | 0.39152 | 36025 ft | 412 kts | 259° |
| 2026-05-05 16:07 | 54.80068 | 0.29383 | 36026 ft | 412 kts | 259° |
| 2026-05-05 16:08 | 54.79011 | 0.19608 | 36026 ft | 413 kts | 259° |
| 2026-05-05 16:08 | 54.77942 | 0.09838 | 36031 ft | 414 kts | 258° |
| 2026-05-05 16:09 | 54.76860 | 0.00051 | 36037 ft | 414 kts | 258° |
| 2026-05-05 16:09 | 54.75772 | -0.09734 | 36047 ft | 414 kts | 258° |
| 2026-05-05 16:10 | 54.74676 | -0.19499 | 36060 ft | 413 kts | 258° |
| 2026-05-05 16:10 | 54.73573 | -0.29251 | 36053 ft | 413 kts | 258° |
| 2026-05-05 16:11 | 54.72465 | -0.38993 | 36049 ft | 413 kts | 258° |
| 2026-05-05 16:12 | 54.70229 | -0.58444 | 36062 ft | 412 kts | 258° |
| 2026-05-05 16:13 | 54.67387 | -0.82672 | 35798 ft | 413 kts | 258° |
| 2026-05-05 16:13 | 54.66806 | -0.87590 | 35545 ft | 413 kts | 258° |
| 2026-05-05 16:13 | 54.66230 | -0.92439 | 35289 ft | 410 kts | 258° |
| 2026-05-05 16:14 | 54.65092 | -1.01935 | 34343 ft | 403 kts | 258° |
| 2026-05-05 16:14 | 54.63959 | -1.11332 | 33363 ft | 396 kts | 258° |
| 2026-05-05 16:15 | 54.62845 | -1.20568 | 32404 ft | 390 kts | 258° |
| 2026-05-05 16:15 | 54.61920 | -1.28186 | 31611 ft | 385 kts | 257° |
| 2026-05-05 16:16 | 54.60824 | -1.37144 | 30696 ft | 378 kts | 257° |
| 2026-05-05 16:16 | 54.59736 | -1.45929 | 29814 ft | 371 kts | 257° |
| 2026-05-05 16:17 | 54.58664 | -1.54529 | 28970 ft | 363 kts | 257° |
| 2026-05-05 16:17 | 54.58138 | -1.58755 | 28568 ft | 359 kts | 257° |
| 2026-05-05 16:18 | 54.57097 | -1.67065 | 27771 ft | 351 kts | 257° |
| 2026-05-05 16:18 | 54.56588 | -1.71104 | 27384 ft | 348 kts | 257° |
| 2026-05-05 16:18 | 54.55296 | -1.79002 | 26584 ft | 339 kts | 242° |
| 2026-05-05 16:19 | 54.53964 | -1.82382 | 26188 ft | 336 kts | 228° |
| 2026-05-05 16:19 | 54.52229 | -1.84992 | 25745 ft | 340 kts | 214° |
| 2026-05-05 16:19 | 54.47711 | -1.87726 | 24789 ft | 350 kts | 192° |
| 2026-05-05 16:20 | 54.42929 | -1.89193 | 23831 ft | 347 kts | 193° |
| 2026-05-05 16:20 | 54.38193 | -1.90674 | 22874 ft | 345 kts | 193° |
| 2026-05-05 16:21 | 54.33492 | -1.92152 | 21931 ft | 342 kts | 193° |
| 2026-05-05 16:22 | 54.26484 | -1.94344 | 20526 ft | 340 kts | 194° |
| 2026-05-05 16:22 | 54.22242 | -1.97482 | 19583 ft | 331 kts | 220° |
| 2026-05-05 16:23 | 54.19297 | -2.03357 | 18692 ft | 324 kts | 236° |
| 2026-05-05 16:23 | 54.18004 | -2.06499 | 18258 ft | 323 kts | 236° |
| 2026-05-05 16:23 | 54.15419 | -2.12734 | 17392 ft | 321 kts | 235° |
| 2026-05-05 16:24 | 54.14085 | -2.15777 | 16950 ft | 320 kts | 234° |
| 2026-05-05 16:24 | 54.12718 | -2.18765 | 16525 ft | 319 kts | 233° |
| 2026-05-05 16:24 | 54.09968 | -2.24680 | 15663 ft | 318 kts | 233° |
| 2026-05-05 16:25 | 54.08595 | -2.27636 | 15225 ft | 318 kts | 233° |
| 2026-05-05 16:25 | 54.05859 | -2.33557 | 14372 ft | 318 kts | 233° |
| 2026-05-05 16:25 | 54.04497 | -2.36511 | 13946 ft | 317 kts | 233° |
| 2026-05-05 16:26 | 54.01357 | -2.41585 | 13411 ft | 307 kts | 208° |
| 2026-05-05 16:26 | 53.97417 | -2.42609 | 13085 ft | 278 kts | 174° |
| 2026-05-05 16:27 | 53.95511 | -2.42140 | 12754 ft | 276 kts | 174° |
| 2026-05-05 16:27 | 53.93619 | -2.41658 | 12491 ft | 274 kts | 173° |
| 2026-05-05 16:27 | 53.91746 | -2.41174 | 12075 ft | 271 kts | 173° |
| 2026-05-05 16:27 | 53.89885 | -2.40695 | 11558 ft | 270 kts | 173° |
| 2026-05-05 16:28 | 53.88033 | -2.40222 | 11060 ft | 268 kts | 173° |
| 2026-05-05 16:28 | 53.86197 | -2.39758 | 10553 ft | 266 kts | 173° |
| 2026-05-05 16:28 | 53.84375 | -2.39299 | 10068 ft | 263 kts | 173° |
| 2026-05-05 16:28 | 53.82567 | -2.38846 | 9557 ft | 261 kts | 172° |
| 2026-05-05 16:29 | 53.80770 | -2.38397 | 9077 ft | 263 kts | 172° |
| 2026-05-05 16:29 | 53.78969 | -2.37945 | 8679 ft | 259 kts | 172° |
| 2026-05-05 16:29 | 53.77194 | -2.37498 | 8333 ft | 257 kts | 172° |
| 2026-05-05 16:29 | 53.75432 | -2.37057 | 7988 ft | 256 kts | 172° |
| 2026-05-05 16:30 | 53.73676 | -2.36618 | 7644 ft | 255 kts | 172° |
| 2026-05-05 16:30 | 53.71916 | -2.36178 | 7307 ft | 255 kts | 172° |
| 2026-05-05 16:30 | 53.70181 | -2.35743 | 7242 ft | 253 kts | 172° |
| 2026-05-05 16:30 | 53.68440 | -2.35306 | 7144 ft | 253 kts | 172° |
| 2026-05-05 16:31 | 53.66689 | -2.35148 | 7033 ft | 252 kts | 186° |
| 2026-05-05 16:31 | 53.64978 | -2.35732 | 7034 ft | 252 kts | 195° |
| 2026-05-05 16:31 | 53.63280 | -2.36480 | 7042 ft | 253 kts | 195° |
| 2026-05-05 16:31 | 53.61584 | -2.37221 | 7044 ft | 252 kts | 195° |
| 2026-05-05 16:32 | 53.59883 | -2.37954 | 7036 ft | 253 kts | 195° |
| 2026-05-05 16:32 | 53.58194 | -2.38681 | 6710 ft | 249 kts | 195° |
| 2026-05-05 16:32 | 53.56519 | -2.39396 | 6175 ft | 247 kts | 194° |
| 2026-05-05 16:32 | 53.54870 | -2.40097 | 5830 ft | 237 kts | 194° |
| 2026-05-05 16:33 | 53.53322 | -2.40755 | 5613 ft | 225 kts | 194° |
| 2026-05-05 16:33 | 53.51815 | -2.41399 | 5350 ft | 222 kts | 194° |
| 2026-05-05 16:33 | 53.50318 | -2.42044 | 5115 ft | 222 kts | 194° |
| 2026-05-05 16:33 | 53.48836 | -2.42682 | 4976 ft | 217 kts | 194° |
| 2026-05-05 16:34 | 53.47393 | -2.43300 | 4851 ft | 212 kts | 194° |
| 2026-05-05 16:34 | 53.45985 | -2.43902 | 4719 ft | 206 kts | 194° |
| 2026-05-05 16:34 | 53.44609 | -2.44492 | 4590 ft | 203 kts | 194° |
| 2026-05-05 16:34 | 53.43250 | -2.45073 | 4403 ft | 200 kts | 194° |
| 2026-05-05 16:35 | 53.41897 | -2.45653 | 4203 ft | 201 kts | 194° |
| 2026-05-05 16:35 | 53.40544 | -2.46234 | 4008 ft | 201 kts | 194° |
| 2026-05-05 16:35 | 53.39211 | -2.46908 | 3811 ft | 200 kts | 210° |
| 2026-05-05 16:35 | 53.38064 | -2.48198 | 3631 ft | 199 kts | 218° |
| 2026-05-05 16:36 | 53.36973 | -2.49620 | 3415 ft | 200 kts | 220° |
| 2026-05-05 16:36 | 53.35883 | -2.51069 | 3262 ft | 200 kts | 220° |
| 2026-05-05 16:36 | 53.34799 | -2.52513 | 3098 ft | 199 kts | 220° |
| 2026-05-05 16:36 | 53.33710 | -2.53963 | 3024 ft | 201 kts | 220° |
| 2026-05-05 16:37 | 53.32634 | -2.55392 | 3041 ft | 194 kts | 220° |
| 2026-05-05 16:37 | 53.31588 | -2.56779 | 3028 ft | 191 kts | 220° |
| 2026-05-05 16:37 | 53.30543 | -2.58139 | 3034 ft | 191 kts | 216° |
| 2026-05-05 16:37 | 53.29295 | -2.58759 | 3041 ft | 190 kts | 174° |
| 2026-05-05 16:38 | 53.28026 | -2.58232 | 3047 ft | 188 kts | 158° |
| 2026-05-05 16:38 | 53.26806 | -2.57447 | 3035 ft | 187 kts | 156° |
| 2026-05-05 16:38 | 53.25601 | -2.56631 | 3044 ft | 187 kts | 155° |
| 2026-05-05 16:38 | 53.24394 | -2.55807 | 3047 ft | 187 kts | 155° |
| 2026-05-05 16:39 | 53.23358 | -2.54591 | 3032 ft | 181 kts | 121° |
| 2026-05-05 16:39 | 53.23105 | -2.52664 | 3027 ft | 170 kts | 69° |
| 2026-05-05 16:39 | 53.23798 | -2.51182 | 3025 ft | 164 kts | 37° |
| 2026-05-05 16:39 | 53.24579 | -2.49800 | 3011 ft | 161 kts | 49° |
| 2026-05-05 16:40 | 53.25236 | -2.48403 | 3018 ft | 142 kts | 48° |
| 2026-05-05 16:40 | 53.25840 | -2.47145 | 2913 ft | 135 kts | 48° |
| 2026-05-05 16:40 | 53.26423 | -2.45941 | 2775 ft | 132 kts | 49° |
| 2026-05-05 16:40 | 53.26997 | -2.44759 | 2618 ft | 131 kts | 50° |
| 2026-05-05 16:41 | 53.27572 | -2.43577 | 2444 ft | 131 kts | 52° |
| 2026-05-05 16:41 | 53.28154 | -2.42381 | 2273 ft | 132 kts | 53° |
| 2026-05-05 16:41 | 53.28739 | -2.41178 | 2099 ft | 134 kts | 53° |
| 2026-05-05 16:41 | 53.29347 | -2.39973 | 1891 ft | 136 kts | 51° |
| 2026-05-05 16:42 | 53.29962 | -2.38742 | 1690 ft | 139 kts | 50° |
| 2026-05-05 16:42 | 53.30545 | -2.37428 | 1440 ft | 141 kts | 51° |
| 2026-05-05 16:42 | 53.31168 | -2.36163 | 1249 ft | 141 kts | 49° |
| 2026-05-05 16:42 | 53.31795 | -2.34892 | 1195 ft | 142 kts | 50° |
| 2026-05-05 16:43 | 53.32419 | -2.33596 | 999 ft | 143 kts | 51° |
| 2026-05-05 16:43 | 53.33044 | -2.32302 | 772 ft | 142 kts | 50° |
| 2026-05-05 16:43 | 53.33674 | -2.31033 | 589 ft | 141 kts | 52° |
| 2026-05-05 16:43 | 53.34289 | -2.29757 | 399 ft | 141 kts | 53° |
| 2026-05-05 16:44 | 53.34898 | -2.28484 | 285 ft | 139 kts | 52° |
| 2026-05-05 16:44 | 53.35436 | -2.27329 | 246 ft | 101 kts | 50° |
| 2026-05-05 16:44 | 53.35746 | -2.26720 | 236 ft | 24 kts | 49° |
| 2026-05-05 16:44 | 53.35872 | -2.26696 | 235 ft | 11 kts | 354° |
| 2026-05-05 16:45 | 53.35907 | -2.26705 | 233 ft | 5 kts | 350° |